sensor_id;sensor_type;location;lat;lon;timestamp;P1;durP1;ratioP1;P2;durP2;ratioP2
21503;SDS011;10913;51.992;9.228;2022-09-21T00:03:32;4.65;;;4.15;;
21503;SDS011;10913;51.992;9.228;2022-09-21T00:06:04;4.65;;;4.20;;
21503;SDS011;10913;51.992;9.228;2022-09-21T00:08:31;4.20;;;3.28;;
21503;SDS011;10913;51.992;9.228;2022-09-21T00:10:57;4.55;;;4.10;;
21503;SDS011;10913;51.992;9.228;2022-09-21T00:13:24;4.63;;;4.18;;
21503;SDS011;10913;51.992;9.228;2022-09-21T00:15:52;4.53;;;3.95;;
21503;SDS011;10913;51.992;9.228;2022-09-21T00:18:20;4.35;;;3.95;;
21503;SDS011;10913;51.992;9.228;2022-09-21T00:20:46;4.78;;;4.28;;
21503;SDS011;10913;51.992;9.228;2022-09-21T00:23:12;4.30;;;3.90;;
21503;SDS011;10913;51.992;9.228;2022-09-21T00:25:37;4.40;;;4.00;;
21503;SDS011;10913;51.992;9.228;2022-09-21T00:28:02;3.92;;;3.60;;
21503;SDS011;10913;51.992;9.228;2022-09-21T00:30:28;4.40;;;3.90;;
21503;SDS011;10913;51.992;9.228;2022-09-21T00:32:54;4.05;;;3.65;;
21503;SDS011;10913;51.992;9.228;2022-09-21T00:35:19;4.68;;;4.28;;
21503;SDS011;10913;51.992;9.228;2022-09-21T00:37:44;4.65;;;4.18;;
21503;SDS011;10913;51.992;9.228;2022-09-21T00:40:10;4.00;;;3.67;;
21503;SDS011;10913;51.992;9.228;2022-09-21T00:42:36;4.93;;;4.43;;
21503;SDS011;10913;51.992;9.228;2022-09-21T00:45:02;4.18;;;3.78;;
21503;SDS011;10913;51.992;9.228;2022-09-21T00:50:05;4.90;;;4.13;;
21503;SDS011;10913;51.992;9.228;2022-09-21T00:52:36;4.32;;;3.90;;
21503;SDS011;10913;51.992;9.228;2022-09-21T00:55:14;4.35;;;3.95;;
21503;SDS011;10913;51.992;9.228;2022-09-21T00:57:41;3.90;;;3.60;;
21503;SDS011;10913;51.992;9.228;2022-09-21T01:00:08;4.03;;;3.65;;
21503;SDS011;10913;51.992;9.228;2022-09-21T01:02:37;3.63;;;3.33;;
21503;SDS011;10913;51.992;9.228;2022-09-21T01:05:04;4.05;;;3.75;;
21503;SDS011;10913;51.992;9.228;2022-09-21T01:07:33;3.90;;;3.60;;
21503;SDS011;10913;51.992;9.228;2022-09-21T01:10:05;3.78;;;3.47;;
21503;SDS011;10913;51.992;9.228;2022-09-21T01:18:13;3.53;;;3.22;;
21503;SDS011;10913;51.992;9.228;2022-09-21T01:34:21;3.70;;;3.35;;
21503;SDS011;10913;51.992;9.228;2022-09-21T01:36:52;3.50;;;3.20;;
21503;SDS011;10913;51.992;9.228;2022-09-21T01:39:21;3.60;;;3.30;;
21503;SDS011;10913;51.992;9.228;2022-09-21T01:41:49;3.47;;;3.17;;
21503;SDS011;10913;51.992;9.228;2022-09-21T01:44:17;3.35;;;3.05;;
21503;SDS011;10913;51.992;9.228;2022-09-21T01:46:45;3.45;;;3.15;;
21503;SDS011;10913;51.992;9.228;2022-09-21T01:49:13;3.30;;;3.00;;
21503;SDS011;10913;51.992;9.228;2022-09-21T01:51:47;3.08;;;2.80;;
21503;SDS011;10913;51.992;9.228;2022-09-21T01:54:32;3.10;;;2.78;;
21503;SDS011;10913;51.992;9.228;2022-09-21T01:57:18;3.30;;;3.00;;
21503;SDS011;10913;51.992;9.228;2022-09-21T01:59:53;3.85;;;3.20;;
21503;SDS011;10913;51.992;9.228;2022-09-21T02:02:24;3.53;;;3.22;;
21503;SDS011;10913;51.992;9.228;2022-09-21T02:05:15;3.38;;;3.08;;
21503;SDS011;10913;51.992;9.228;2022-09-21T02:07:44;3.60;;;3.30;;
21503;SDS011;10913;51.992;9.228;2022-09-21T02:10:14;4.10;;;3.38;;
21503;SDS011;10913;51.992;9.228;2022-09-21T02:12:45;3.30;;;3.00;;
21503;SDS011;10913;51.992;9.228;2022-09-21T02:15:12;3.63;;;3.33;;
21503;SDS011;10913;51.992;9.228;2022-09-21T02:17:42;3.38;;;3.08;;
21503;SDS011;10913;51.992;9.228;2022-09-21T02:20:17;3.53;;;3.22;;
21503;SDS011;10913;51.992;9.228;2022-09-21T02:28:32;3.10;;;2.90;;
21503;SDS011;10913;51.992;9.228;2022-09-21T02:31:46;3.33;;;3.05;;
21503;SDS011;10913;51.992;9.228;2022-09-21T02:34:20;3.90;;;3.50;;
21503;SDS011;10913;51.992;9.228;2022-09-21T02:36:53;3.50;;;3.20;;
21503;SDS011;10913;51.992;9.228;2022-09-21T02:39:31;3.63;;;3.30;;
21503;SDS011;10913;51.992;9.228;2022-09-21T02:42:05;3.65;;;3.35;;
21503;SDS011;10913;51.992;9.228;2022-09-21T02:44:37;3.47;;;3.13;;
21503;SDS011;10913;51.992;9.228;2022-09-21T02:47:11;3.55;;;3.25;;
21503;SDS011;10913;51.992;9.228;2022-09-21T02:49:44;3.83;;;3.40;;
21503;SDS011;10913;51.992;9.228;2022-09-21T02:52:15;3.75;;;3.15;;
21503;SDS011;10913;51.992;9.228;2022-09-21T02:54:43;3.30;;;3.00;;
21503;SDS011;10913;51.992;9.228;2022-09-21T02:57:11;3.33;;;3.03;;
21503;SDS011;10913;51.992;9.228;2022-09-21T02:59:40;3.60;;;3.30;;
21503;SDS011;10913;51.992;9.228;2022-09-21T03:02:06;3.65;;;3.35;;
21503;SDS011;10913;51.992;9.228;2022-09-21T03:04:33;3.05;;;2.83;;
21503;SDS011;10913;51.992;9.228;2022-09-21T03:06:59;3.35;;;3.05;;
21503;SDS011;10913;51.992;9.228;2022-09-21T03:09:24;3.08;;;2.80;;
21503;SDS011;10913;51.992;9.228;2022-09-21T03:11:50;4.07;;;2.95;;
21503;SDS011;10913;51.992;9.228;2022-09-21T03:14:16;4.07;;;3.03;;
21503;SDS011;10913;51.992;9.228;2022-09-21T03:16:42;3.22;;;2.63;;
21503;SDS011;10913;51.992;9.228;2022-09-21T03:19:07;3.60;;;2.90;;
21503;SDS011;10913;51.992;9.228;2022-09-21T03:21:34;4.97;;;3.33;;
21503;SDS011;10913;51.992;9.228;2022-09-21T03:23:59;4.82;;;3.40;;
21503;SDS011;10913;51.992;9.228;2022-09-21T03:26:24;3.15;;;2.90;;
21503;SDS011;10913;51.992;9.228;2022-09-21T03:28:50;3.72;;;3.00;;
21503;SDS011;10913;51.992;9.228;2022-09-21T03:31:17;6.25;;;5.63;;
21503;SDS011;10913;51.992;9.228;2022-09-21T03:33:42;5.78;;;5.18;;
21503;SDS011;10913;51.992;9.228;2022-09-21T03:36:08;4.95;;;4.45;;
21503;SDS011;10913;51.992;9.228;2022-09-21T03:38:34;4.82;;;4.30;;
21503;SDS011;10913;51.992;9.228;2022-09-21T03:41:00;3.63;;;3.33;;
21503;SDS011;10913;51.992;9.228;2022-09-21T03:43:25;4.88;;;4.43;;
21503;SDS011;10913;51.992;9.228;2022-09-21T03:45:51;4.30;;;3.90;;
21503;SDS011;10913;51.992;9.228;2022-09-21T03:48:17;4.15;;;3.75;;
21503;SDS011;10913;51.992;9.228;2022-09-21T03:50:43;3.47;;;3.17;;
21503;SDS011;10913;51.992;9.228;2022-09-21T03:53:08;2.85;;;2.65;;
21503;SDS011;10913;51.992;9.228;2022-09-21T03:55:34;3.25;;;2.80;;
21503;SDS011;10913;51.992;9.228;2022-09-21T03:58:00;3.30;;;3.00;;
21503;SDS011;10913;51.992;9.228;2022-09-21T04:00:26;3.80;;;3.40;;
21503;SDS011;10913;51.992;9.228;2022-09-21T04:02:51;3.40;;;3.10;;
21503;SDS011;10913;51.992;9.228;2022-09-21T04:05:17;3.17;;;2.88;;
21503;SDS011;10913;51.992;9.228;2022-09-21T04:07:42;3.28;;;3.00;;
21503;SDS011;10913;51.992;9.228;2022-09-21T04:10:10;3.10;;;2.88;;
21503;SDS011;10913;51.992;9.228;2022-09-21T04:12:38;3.45;;;3.15;;
21503;SDS011;10913;51.992;9.228;2022-09-21T04:15:08;3.63;;;3.33;;
21503;SDS011;10913;51.992;9.228;2022-09-21T04:17:37;3.42;;;3.13;;
21503;SDS011;10913;51.992;9.228;2022-09-21T04:20:03;2.80;;;2.60;;
21503;SDS011;10913;51.992;9.228;2022-09-21T04:22:30;2.92;;;2.72;;
21503;SDS011;10913;51.992;9.228;2022-09-21T04:24:55;2.70;;;2.50;;
21503;SDS011;10913;51.992;9.228;2022-09-21T04:27:21;3.10;;;2.80;;
21503;SDS011;10913;51.992;9.228;2022-09-21T04:29:46;3.13;;;2.83;;
21503;SDS011;10913;51.992;9.228;2022-09-21T04:32:12;3.08;;;2.78;;
21503;SDS011;10913;51.992;9.228;2022-09-21T04:34:38;2.38;;;2.17;;
21503;SDS011;10913;51.992;9.228;2022-09-21T04:37:06;2.42;;;2.22;;
21503;SDS011;10913;51.992;9.228;2022-09-21T04:39:34;2.90;;;2.60;;
21503;SDS011;10913;51.992;9.228;2022-09-21T04:41:59;2.70;;;2.50;;
21503;SDS011;10913;51.992;9.228;2022-09-21T04:44:25;2.80;;;2.60;;
21503;SDS011;10913;51.992;9.228;2022-09-21T04:46:51;2.42;;;2.22;;
21503;SDS011;10913;51.992;9.228;2022-09-21T04:49:16;3.03;;;2.72;;
21503;SDS011;10913;51.992;9.228;2022-09-21T04:51:41;2.63;;;2.42;;
21503;SDS011;10913;51.992;9.228;2022-09-21T04:54:07;3.20;;;2.88;;
21503;SDS011;10913;51.992;9.228;2022-09-21T04:56:32;2.80;;;2.60;;
21503;SDS011;10913;51.992;9.228;2022-09-21T04:58:58;3.10;;;2.60;;
21503;SDS011;10913;51.992;9.228;2022-09-21T05:01:23;2.75;;;2.55;;
21503;SDS011;10913;51.992;9.228;2022-09-21T05:03:49;2.63;;;2.42;;
21503;SDS011;10913;51.992;9.228;2022-09-21T05:06:14;2.92;;;2.63;;
21503;SDS011;10913;51.992;9.228;2022-09-21T05:08:40;2.80;;;2.60;;
21503;SDS011;10913;51.992;9.228;2022-09-21T05:11:24;2.53;;;2.33;;
21503;SDS011;10913;51.992;9.228;2022-09-21T05:13:50;2.75;;;2.50;;
21503;SDS011;10913;51.992;9.228;2022-09-21T05:16:18;2.42;;;2.22;;
21503;SDS011;10913;51.992;9.228;2022-09-21T05:18:51;2.38;;;2.17;;
21503;SDS011;10913;51.992;9.228;2022-09-21T05:21:22;2.63;;;2.42;;
21503;SDS011;10913;51.992;9.228;2022-09-21T05:24:01;2.33;;;2.10;;
21503;SDS011;10913;51.992;9.228;2022-09-21T05:26:42;2.65;;;1.90;;
21503;SDS011;10913;51.992;9.228;2022-09-21T05:29:10;2.38;;;2.17;;
21503;SDS011;10913;51.992;9.228;2022-09-21T05:40:40;2.58;;;2.38;;
21503;SDS011;10913;51.992;9.228;2022-09-21T05:43:29;2.45;;;2.25;;
21503;SDS011;10913;51.992;9.228;2022-09-21T05:49:16;13.23;;;2.47;;
21503;SDS011;10913;51.992;9.228;2022-09-21T05:57:45;2.80;;;2.33;;
21503;SDS011;10913;51.992;9.228;2022-09-21T06:00:25;2.13;;;2.03;;
21503;SDS011;10913;51.992;9.228;2022-09-21T06:03:16;4.40;;;2.15;;
21503;SDS011;10913;51.992;9.228;2022-09-21T06:05:59;2.40;;;2.20;;
21503;SDS011;10913;51.992;9.228;2022-09-21T06:08:30;2.58;;;2.22;;
21503;SDS011;10913;51.992;9.228;2022-09-21T06:11:06;2.70;;;2.50;;
21503;SDS011;10913;51.992;9.228;2022-09-21T06:13:40;2.70;;;2.50;;
21503;SDS011;10913;51.992;9.228;2022-09-21T06:16:25;2.50;;;2.30;;
21503;SDS011;10913;51.992;9.228;2022-09-21T06:19:21;2.60;;;2.40;;
21503;SDS011;10913;51.992;9.228;2022-09-21T06:21:49;3.25;;;3.03;;
21503;SDS011;10913;51.992;9.228;2022-09-21T06:24:14;3.55;;;3.00;;
21503;SDS011;10913;51.992;9.228;2022-09-21T06:26:42;2.80;;;2.60;;
21503;SDS011;10913;51.992;9.228;2022-09-21T06:29:16;3.47;;;3.10;;
21503;SDS011;10913;51.992;9.228;2022-09-21T06:31:50;4.13;;;3.00;;
21503;SDS011;10913;51.992;9.228;2022-09-21T06:34:18;3.33;;;3.03;;
21503;SDS011;10913;51.992;9.228;2022-09-21T06:36:49;3.88;;;3.20;;
21503;SDS011;10913;51.992;9.228;2022-09-21T06:39:15;4.90;;;2.97;;
21503;SDS011;10913;51.992;9.228;2022-09-21T06:41:43;3.45;;;3.15;;
21503;SDS011;10913;51.992;9.228;2022-09-21T06:44:08;4.28;;;3.65;;
21503;SDS011;10913;51.992;9.228;2022-09-21T06:46:34;4.07;;;3.30;;
21503;SDS011;10913;51.992;9.228;2022-09-21T06:48:59;6.20;;;3.20;;
21503;SDS011;10913;51.992;9.228;2022-09-21T06:51:25;4.10;;;3.22;;
21503;SDS011;10913;51.992;9.228;2022-09-21T06:54:00;3.80;;;3.50;;
21503;SDS011;10913;51.992;9.228;2022-09-21T06:56:32;4.07;;;3.67;;
21503;SDS011;10913;51.992;9.228;2022-09-21T06:59:00;3.53;;;3.22;;
21503;SDS011;10913;51.992;9.228;2022-09-21T07:01:29;4.00;;;3.38;;
21503;SDS011;10913;51.992;9.228;2022-09-21T07:04:06;3.65;;;3.35;;
21503;SDS011;10913;51.992;9.228;2022-09-21T07:06:37;3.72;;;3.42;;
21503;SDS011;10913;51.992;9.228;2022-09-21T07:09:19;3.80;;;3.40;;
21503;SDS011;10913;51.992;9.228;2022-09-21T07:11:50;5.00;;;4.40;;
21503;SDS011;10913;51.992;9.228;2022-09-21T07:14:19;4.40;;;4.00;;
21503;SDS011;10913;51.992;9.228;2022-09-21T07:16:46;6.22;;;4.40;;
21503;SDS011;10913;51.992;9.228;2022-09-21T07:19:18;5.80;;;5.20;;
21503;SDS011;10913;51.992;9.228;2022-09-21T07:21:46;6.55;;;4.68;;
21503;SDS011;10913;51.992;9.228;2022-09-21T07:24:19;4.95;;;4.45;;
21503;SDS011;10913;51.992;9.228;2022-09-21T07:26:48;5.00;;;4.50;;
21503;SDS011;10913;51.992;9.228;2022-09-21T07:29:16;4.53;;;4.13;;
21503;SDS011;10913;51.992;9.228;2022-09-21T07:31:45;4.85;;;4.45;;
21503;SDS011;10913;51.992;9.228;2022-09-21T07:34:14;5.15;;;4.50;;
21503;SDS011;10913;51.992;9.228;2022-09-21T07:36:42;4.78;;;3.95;;
21503;SDS011;10913;51.992;9.228;2022-09-21T07:39:10;11.65;;;5.05;;
21503;SDS011;10913;51.992;9.228;2022-09-21T07:41:38;6.43;;;4.57;;
21503;SDS011;10913;51.992;9.228;2022-09-21T07:44:10;4.90;;;4.50;;
21503;SDS011;10913;51.992;9.228;2022-09-21T07:46:40;5.10;;;4.60;;
21503;SDS011;10913;51.992;9.228;2022-09-21T07:49:12;6.00;;;5.18;;
21503;SDS011;10913;51.992;9.228;2022-09-21T07:51:48;5.82;;;5.22;;
21503;SDS011;10913;51.992;9.228;2022-09-21T07:54:19;7.93;;;5.65;;
21503;SDS011;10913;51.992;9.228;2022-09-21T07:56:50;6.03;;;5.43;;
21503;SDS011;10913;51.992;9.228;2022-09-21T07:59:52;8.07;;;6.20;;
21503;SDS011;10913;51.992;9.228;2022-09-21T08:02:29;6.18;;;5.57;;
21503;SDS011;10913;51.992;9.228;2022-09-21T08:05:36;6.82;;;5.53;;
21503;SDS011;10913;51.992;9.228;2022-09-21T08:08:25;6.15;;;5.50;;
21503;SDS011;10913;51.992;9.228;2022-09-21T08:11:00;7.00;;;5.82;;
21503;SDS011;10913;51.992;9.228;2022-09-21T08:14:02;6.53;;;5.55;;
21503;SDS011;10913;51.992;9.228;2022-09-21T08:16:33;6.05;;;5.45;;
21503;SDS011;10913;51.992;9.228;2022-09-21T08:18:59;6.22;;;5.63;;
21503;SDS011;10913;51.992;9.228;2022-09-21T08:21:24;5.43;;;4.90;;
21503;SDS011;10913;51.992;9.228;2022-09-21T08:23:49;7.15;;;6.45;;
21503;SDS011;10913;51.992;9.228;2022-09-21T08:26:16;6.70;;;6.00;;
21503;SDS011;10913;51.992;9.228;2022-09-21T08:28:47;7.20;;;6.47;;
21503;SDS011;10913;51.992;9.228;2022-09-21T08:31:14;7.72;;;6.93;;
21503;SDS011;10913;51.992;9.228;2022-09-21T08:33:40;7.22;;;6.53;;
21503;SDS011;10913;51.992;9.228;2022-09-21T08:36:07;6.20;;;5.57;;
21503;SDS011;10913;51.992;9.228;2022-09-21T08:38:33;9.10;;;6.93;;
21503;SDS011;10913;51.992;9.228;2022-09-21T08:41:00;6.20;;;5.60;;
21503;SDS011;10913;51.992;9.228;2022-09-21T08:43:39;8.38;;;7.47;;
21503;SDS011;10913;51.992;9.228;2022-09-21T08:46:09;7.07;;;6.38;;
21503;SDS011;10913;51.992;9.228;2022-09-21T08:48:55;6.97;;;5.80;;
21503;SDS011;10913;51.992;9.228;2022-09-21T08:51:44;5.82;;;5.13;;
21503;SDS011;10913;51.992;9.228;2022-09-21T08:54:16;5.70;;;5.15;;
21503;SDS011;10913;51.992;9.228;2022-09-21T08:56:49;6.57;;;5.90;;
21503;SDS011;10913;51.992;9.228;2022-09-21T08:59:14;7.88;;;6.38;;
21503;SDS011;10913;51.992;9.228;2022-09-21T09:01:54;7.22;;;6.10;;
21503;SDS011;10913;51.992;9.228;2022-09-21T09:07:13;6.20;;;5.60;;
21503;SDS011;10913;51.992;9.228;2022-09-21T09:10:11;7.13;;;5.90;;
21503;SDS011;10913;51.992;9.228;2022-09-21T09:20:26;5.60;;;5.03;;
21503;SDS011;10913;51.992;9.228;2022-09-21T09:25:40;5.68;;;5.05;;
21503;SDS011;10913;51.992;9.228;2022-09-21T09:28:24;7.63;;;5.50;;
21503;SDS011;10913;51.992;9.228;2022-09-21T09:30:54;5.15;;;4.65;;
21503;SDS011;10913;51.992;9.228;2022-09-21T09:33:25;5.72;;;5.13;;
21503;SDS011;10913;51.992;9.228;2022-09-21T09:36:03;6.00;;;5.40;;
21503;SDS011;10913;51.992;9.228;2022-09-21T09:38:37;6.38;;;4.78;;
21503;SDS011;10913;51.992;9.228;2022-09-21T09:51:50;4.82;;;3.60;;
21503;SDS011;10913;51.992;9.228;2022-09-21T09:54:16;5.15;;;3.95;;
21503;SDS011;10913;51.992;9.228;2022-09-21T09:56:45;6.70;;;3.25;;
21503;SDS011;10913;51.992;9.228;2022-09-21T09:59:57;4.63;;;2.90;;
21503;SDS011;10913;51.992;9.228;2022-09-21T10:02:01;3.50;;;2.70;;
21503;SDS011;10913;51.992;9.228;2022-09-21T10:04:32;4.72;;;2.60;;
21503;SDS011;10913;51.992;9.228;2022-09-21T10:06:59;7.72;;;2.95;;
21503;SDS011;10913;51.992;9.228;2022-09-21T10:11:50;4.28;;;1.98;;
21503;SDS011;10913;51.992;9.228;2022-09-21T10:14:20;4.88;;;1.90;;
21503;SDS011;10913;51.992;9.228;2022-09-21T10:16:48;3.63;;;1.55;;
21503;SDS011;10913;51.992;9.228;2022-09-21T10:19:17;4.28;;;2.90;;
21503;SDS011;10913;51.992;9.228;2022-09-21T10:21:55;3.70;;;1.58;;
21503;SDS011;10913;51.992;9.228;2022-09-21T10:24:26;4.15;;;1.40;;
21503;SDS011;10913;51.992;9.228;2022-09-21T10:29:40;3.80;;;1.25;;
21503;SDS011;10913;51.992;9.228;2022-09-21T10:34:36;4.25;;;1.40;;
21503;SDS011;10913;51.992;9.228;2022-09-21T10:37:22;2.80;;;1.30;;
21503;SDS011;10913;51.992;9.228;2022-09-21T10:39:52;4.22;;;1.30;;
21503;SDS011;10913;51.992;9.228;2022-09-21T10:42:18;3.17;;;1.30;;
21503;SDS011;10913;51.992;9.228;2022-09-21T10:44:45;5.05;;;1.50;;
21503;SDS011;10913;51.992;9.228;2022-09-21T10:49:42;4.93;;;1.33;;
21503;SDS011;10913;51.992;9.228;2022-09-21T10:52:11;6.25;;;1.63;;
21503;SDS011;10913;51.992;9.228;2022-09-21T10:54:37;3.85;;;1.15;;
21503;SDS011;10913;51.992;9.228;2022-09-21T10:57:06;2.50;;;1.13;;
21503;SDS011;10913;51.992;9.228;2022-09-21T10:59:35;3.83;;;1.40;;
21503;SDS011;10913;51.992;9.228;2022-09-21T11:02:02;3.20;;;1.20;;
21503;SDS011;10913;51.992;9.228;2022-09-21T11:04:48;4.03;;;1.30;;
21503;SDS011;10913;51.992;9.228;2022-09-21T11:07:26;4.35;;;1.20;;
21503;SDS011;10913;51.992;9.228;2022-09-21T11:21:34;5.03;;;1.35;;
21503;SDS011;10913;51.992;9.228;2022-09-21T11:30:20;2.58;;;1.00;;
21503;SDS011;10913;51.992;9.228;2022-09-21T11:41:52;5.28;;;1.10;;
21503;SDS011;10913;51.992;9.228;2022-09-21T11:53:05;2.35;;;1.00;;
21503;SDS011;10913;51.992;9.228;2022-09-21T11:55:47;3.53;;;1.20;;
21503;SDS011;10913;51.992;9.228;2022-09-21T11:58:46;4.25;;;1.05;;
21503;SDS011;10913;51.992;9.228;2022-09-21T12:04:35;2.92;;;0.98;;
21503;SDS011;10913;51.992;9.228;2022-09-21T12:12:39;2.40;;;1.00;;
21503;SDS011;10913;51.992;9.228;2022-09-21T12:20:41;2.58;;;0.82;;
21503;SDS011;10913;51.992;9.228;2022-09-21T12:23:15;2.08;;;1.10;;
21503;SDS011;10913;51.992;9.228;2022-09-21T12:25:45;1.88;;;0.90;;
21503;SDS011;10913;51.992;9.228;2022-09-21T12:30:48;3.33;;;1.10;;
21503;SDS011;10913;51.992;9.228;2022-09-21T12:35:56;1.52;;;1.00;;
21503;SDS011;10913;51.992;9.228;2022-09-21T12:52:53;2.90;;;0.95;;
21503;SDS011;10913;51.992;9.228;2022-09-21T13:00:23;1.73;;;0.98;;
21503;SDS011;10913;51.992;9.228;2022-09-21T13:06:07;2.58;;;1.08;;
21503;SDS011;10913;51.992;9.228;2022-09-21T13:08:51;3.47;;;1.20;;
21503;SDS011;10913;51.992;9.228;2022-09-21T13:11:17;2.00;;;0.95;;
21503;SDS011;10913;51.992;9.228;2022-09-21T13:13:50;3.15;;;0.95;;
21503;SDS011;10913;51.992;9.228;2022-09-21T13:16:24;3.65;;;1.20;;
21503;SDS011;10913;51.992;9.228;2022-09-21T13:18:56;3.15;;;1.05;;
21503;SDS011;10913;51.992;9.228;2022-09-21T13:21:27;3.75;;;1.00;;
21503;SDS011;10913;51.992;9.228;2022-09-21T13:23:55;4.05;;;1.05;;
21503;SDS011;10913;51.992;9.228;2022-09-21T13:34:24;3.13;;;1.08;;
21503;SDS011;10913;51.992;9.228;2022-09-21T13:44:57;1.85;;;0.80;;
21503;SDS011;10913;51.992;9.228;2022-09-21T13:47:43;2.03;;;1.10;;
21503;SDS011;10913;51.992;9.228;2022-09-21T13:52:52;2.83;;;1.05;;
21503;SDS011;10913;51.992;9.228;2022-09-21T13:57:48;2.50;;;0.82;;
21503;SDS011;10913;51.992;9.228;2022-09-21T14:00:24;2.50;;;1.02;;
21503;SDS011;10913;51.992;9.228;2022-09-21T14:03:39;2.20;;;0.98;;
21503;SDS011;10913;51.992;9.228;2022-09-21T14:06:00;2.22;;;0.90;;
21503;SDS011;10913;51.992;9.228;2022-09-21T14:08:54;2.75;;;1.00;;
21503;SDS011;10913;51.992;9.228;2022-09-21T14:14:11;1.63;;;0.93;;
21503;SDS011;10913;51.992;9.228;2022-09-21T14:24:34;4.35;;;1.30;;
21503;SDS011;10913;51.992;9.228;2022-09-21T14:30:03;3.38;;;1.13;;
21503;SDS011;10913;51.992;9.228;2022-09-21T14:32:40;5.07;;;1.25;;
21503;SDS011;10913;51.992;9.228;2022-09-21T14:35:15;3.10;;;1.23;;
21503;SDS011;10913;51.992;9.228;2022-09-21T14:37:48;2.55;;;1.10;;
21503;SDS011;10913;51.992;9.228;2022-09-21T14:40:17;2.85;;;0.95;;
21503;SDS011;10913;51.992;9.228;2022-09-21T14:42:48;1.67;;;0.90;;
21503;SDS011;10913;51.992;9.228;2022-09-21T14:45:17;2.83;;;1.10;;
21503;SDS011;10913;51.992;9.228;2022-09-21T14:50:44;2.65;;;1.10;;
21503;SDS011;10913;51.992;9.228;2022-09-21T14:56:04;2.85;;;1.33;;
21503;SDS011;10913;51.992;9.228;2022-09-21T15:07:09;2.17;;;0.93;;
21503;SDS011;10913;51.992;9.228;2022-09-21T15:10:21;1.27;;;0.95;;
21503;SDS011;10913;51.992;9.228;2022-09-21T15:13:18;2.58;;;0.95;;
21503;SDS011;10913;51.992;9.228;2022-09-21T15:18:26;2.47;;;0.93;;
21503;SDS011;10913;51.992;9.228;2022-09-21T15:23:26;2.15;;;1.02;;
21503;SDS011;10913;51.992;9.228;2022-09-21T15:26:28;3.22;;;0.90;;
21503;SDS011;10913;51.992;9.228;2022-09-21T15:28:58;4.38;;;1.00;;
21503;SDS011;10913;51.992;9.228;2022-09-21T15:31:30;2.22;;;1.00;;
21503;SDS011;10913;51.992;9.228;2022-09-21T15:33:58;2.75;;;1.00;;
21503;SDS011;10913;51.992;9.228;2022-09-21T15:36:28;3.83;;;1.00;;
21503;SDS011;10913;51.992;9.228;2022-09-21T15:38:55;2.95;;;0.90;;
21503;SDS011;10913;51.992;9.228;2022-09-21T15:44:22;2.95;;;0.90;;
21503;SDS011;10913;51.992;9.228;2022-09-21T15:46:51;2.03;;;0.90;;
21503;SDS011;10913;51.992;9.228;2022-09-21T15:49:21;3.15;;;1.13;;
21503;SDS011;10913;51.992;9.228;2022-09-21T16:00:00;2.03;;;1.05;;
21503;SDS011;10913;51.992;9.228;2022-09-21T16:02:30;2.63;;;1.00;;
21503;SDS011;10913;51.992;9.228;2022-09-21T16:05:02;1.45;;;0.90;;
21503;SDS011;10913;51.992;9.228;2022-09-21T16:09:58;2.42;;;1.20;;
21503;SDS011;10913;51.992;9.228;2022-09-21T16:14:50;2.47;;;1.10;;
21503;SDS011;10913;51.992;9.228;2022-09-21T16:17:22;2.50;;;1.00;;
21503;SDS011;10913;51.992;9.228;2022-09-21T16:22:21;3.30;;;1.17;;
21503;SDS011;10913;51.992;9.228;2022-09-21T16:24:52;2.75;;;1.05;;
21503;SDS011;10913;51.992;9.228;2022-09-21T16:27:21;2.63;;;0.90;;
21503;SDS011;10913;51.992;9.228;2022-09-21T16:29:49;2.85;;;0.90;;
21503;SDS011;10913;51.992;9.228;2022-09-21T16:34:41;2.22;;;0.90;;
21503;SDS011;10913;51.992;9.228;2022-09-21T16:39:48;1.73;;;1.00;;
21503;SDS011;10913;51.992;9.228;2022-09-21T16:42:18;1.98;;;0.80;;
21503;SDS011;10913;51.992;9.228;2022-09-21T16:44:44;1.83;;;0.90;;
21503;SDS011;10913;51.992;9.228;2022-09-21T16:47:15;3.03;;;1.17;;
21503;SDS011;10913;51.992;9.228;2022-09-21T16:49:46;2.60;;;0.80;;
21503;SDS011;10913;51.992;9.228;2022-09-21T16:52:12;2.90;;;0.90;;
21503;SDS011;10913;51.992;9.228;2022-09-21T16:54:40;2.92;;;1.02;;
21503;SDS011;10913;51.992;9.228;2022-09-21T16:57:05;2.78;;;0.90;;
21503;SDS011;10913;51.992;9.228;2022-09-21T16:59:31;2.03;;;0.85;;
21503;SDS011;10913;51.992;9.228;2022-09-21T17:01:59;1.95;;;0.93;;
21503;SDS011;10913;51.992;9.228;2022-09-21T17:04:28;2.53;;;1.02;;
21503;SDS011;10913;51.992;9.228;2022-09-21T17:06:55;2.75;;;1.20;;
21503;SDS011;10913;51.992;9.228;2022-09-21T17:09:23;2.55;;;0.93;;
21503;SDS011;10913;51.992;9.228;2022-09-21T17:11:49;2.88;;;1.00;;
21503;SDS011;10913;51.992;9.228;2022-09-21T17:14:15;2.17;;;0.88;;
21503;SDS011;10913;51.992;9.228;2022-09-21T17:16:43;2.03;;;0.88;;
21503;SDS011;10913;51.992;9.228;2022-09-21T17:19:11;1.95;;;0.98;;
21503;SDS011;10913;51.992;9.228;2022-09-21T17:21:36;2.38;;;1.00;;
21503;SDS011;10913;51.992;9.228;2022-09-21T17:24:02;2.30;;;1.08;;
21503;SDS011;10913;51.992;9.228;2022-09-21T17:26:27;3.10;;;1.15;;
21503;SDS011;10913;51.992;9.228;2022-09-21T17:28:53;2.40;;;1.00;;
21503;SDS011;10913;51.992;9.228;2022-09-21T17:31:19;2.20;;;0.88;;
21503;SDS011;10913;51.992;9.228;2022-09-21T17:33:47;1.77;;;0.90;;
21503;SDS011;10913;51.992;9.228;2022-09-21T17:36:14;3.47;;;1.00;;
21503;SDS011;10913;51.992;9.228;2022-09-21T17:38:41;3.03;;;1.10;;
21503;SDS011;10913;51.992;9.228;2022-09-21T17:44:06;1.63;;;0.90;;
21503;SDS011;10913;51.992;9.228;2022-09-21T17:46:52;1.83;;;0.80;;
21503;SDS011;10913;51.992;9.228;2022-09-21T17:49:19;3.45;;;1.00;;
21503;SDS011;10913;51.992;9.228;2022-09-21T17:51:45;2.10;;;1.00;;
21503;SDS011;10913;51.992;9.228;2022-09-21T17:54:29;3.35;;;0.80;;
21503;SDS011;10913;51.992;9.228;2022-09-21T17:59:38;1.88;;;0.90;;
21503;SDS011;10913;51.992;9.228;2022-09-21T18:05:01;3.33;;;1.05;;
21503;SDS011;10913;51.992;9.228;2022-09-21T18:07:34;1.63;;;0.90;;
21503;SDS011;10913;51.992;9.228;2022-09-21T18:10:00;1.48;;;1.15;;
21503;SDS011;10913;51.992;9.228;2022-09-21T18:18:03;3.10;;;1.63;;
21503;SDS011;10913;51.992;9.228;2022-09-21T18:25:50;1.70;;;0.90;;
21503;SDS011;10913;51.992;9.228;2022-09-21T18:36:49;2.25;;;1.48;;
21503;SDS011;10913;51.992;9.228;2022-09-21T18:45:02;1.73;;;0.90;;
21503;SDS011;10913;51.992;9.228;2022-09-21T18:47:38;1.55;;;0.82;;
21503;SDS011;10913;51.992;9.228;2022-09-21T18:50:18;2.60;;;1.20;;
21503;SDS011;10913;51.992;9.228;2022-09-21T18:55:24;1.40;;;0.82;;
21503;SDS011;10913;51.992;9.228;2022-09-21T18:57:55;1.40;;;1.05;;
21503;SDS011;10913;51.992;9.228;2022-09-21T19:00:21;2.47;;;1.00;;
21503;SDS011;10913;51.992;9.228;2022-09-21T19:02:47;3.38;;;1.17;;
21503;SDS011;10913;51.992;9.228;2022-09-21T19:05:14;1.95;;;1.08;;
21503;SDS011;10913;51.992;9.228;2022-09-21T19:07:47;2.78;;;1.10;;
21503;SDS011;10913;51.992;9.228;2022-09-21T19:10:23;2.95;;;1.13;;
21503;SDS011;10913;51.992;9.228;2022-09-21T19:15:29;4.97;;;1.10;;
21503;SDS011;10913;51.992;9.228;2022-09-21T19:28:16;1.55;;;1.00;;
21503;SDS011;10913;51.992;9.228;2022-09-21T19:31:13;2.50;;;1.20;;
21503;SDS011;10913;51.992;9.228;2022-09-21T19:33:42;2.50;;;1.20;;
21503;SDS011;10913;51.992;9.228;2022-09-21T19:36:09;1.65;;;0.98;;
21503;SDS011;10913;51.992;9.228;2022-09-21T19:38:35;1.73;;;1.48;;
21503;SDS011;10913;51.992;9.228;2022-09-21T19:46:36;3.30;;;2.97;;
21503;SDS011;10913;51.992;9.228;2022-09-21T19:49:14;3.80;;;2.35;;
21503;SDS011;10913;51.992;9.228;2022-09-21T19:51:50;3.97;;;1.77;;
21503;SDS011;10913;51.992;9.228;2022-09-21T19:54:18;4.63;;;1.80;;
21503;SDS011;10913;51.992;9.228;2022-09-21T19:57:12;3.28;;;1.80;;
21503;SDS011;10913;51.992;9.228;2022-09-21T19:59:58;2.70;;;1.88;;
21503;SDS011;10913;51.992;9.228;2022-09-21T20:02:26;3.13;;;2.03;;
21503;SDS011;10913;51.992;9.228;2022-09-21T20:08:24;3.63;;;3.00;;